Time;durP1;ratioP1;P1;durP2;ratioP2;P2;SDS_P1;SDS_P2;PMS_P1;PMS_P2;Temp;Humidity;BMP_temperature;BMP_pressure;BME280_temperature;BME280_humidity;BME280_pressure;Samples;Min_cycle;Max_cycle;Signal;HPM_P1;HPM_P2
2021/05/19 00:00:59;;;;;;;9.67;8.87;;;11.00;99.90;;;;;;4972770;28;20868;-75
2021/05/19 00:03:28;;;;;;;10.10;9.30;;;10.90;99.90;;;;;;4947231;28;20495;-73
2021/05/19 00:05:54;;;;;;;9.87;8.97;;;10.90;99.90;;;;;;4969888;28;20874;-75
2021/05/19 00:08:21;;;;;;;9.80;8.90;;;10.90;99.90;;;;;;4986392;28;20525;-74
2021/05/19 00:10:48;;;;;;;10.77;9.77;;;10.90;99.90;;;;;;4978776;28;20571;-75
2021/05/19 00:13:15;;;;;;;11.97;9.83;;;10.80;99.90;;;;;;4970717;28;20473;-74
2021/05/19 00:15:42;;;;;;;11.00;10.17;;;10.90;99.90;;;;;;4972908;28;20435;-75
2021/05/19 00:18:09;;;;;;;11.30;10.30;;;10.90;99.90;;;;;;4947076;28;20467;-73
2021/05/19 00:20:35;;;;;;;10.03;9.23;;;10.90;99.90;;;;;;4953994;29;20542;-75
2021/05/19 00:23:02;;;;;;;10.97;9.97;;;10.90;99.90;;;;;;4935635;29;20466;-74
2021/05/19 00:25:29;;;;;;;11.27;10.27;;;10.90;99.90;;;;;;4928363;29;20490;-75
2021/05/19 00:27:56;;;;;;;10.57;9.60;;;10.90;99.90;;;;;;4952459;28;20518;-75
2021/05/19 00:30:23;;;;;;;9.73;8.93;;;10.90;99.90;;;;;;4951843;29;20436;-76
2021/05/19 00:32:50;;;;;;;9.70;8.90;;;11.00;99.90;;;;;;4955599;28;20454;-75
2021/05/19 00:35:17;;;;;;;10.30;9.40;;;11.00;99.90;;;;;;4954923;28;20435;-73
2021/05/19 00:37:43;;;;;;;10.43;9.43;;;11.10;99.90;;;;;;4954263;28;20462;-74
2021/05/19 00:40:11;;;;;;;10.73;9.63;;;11.10;99.90;;;;;;4975365;28;20445;-76
2021/05/19 00:42:38;;;;;;;9.77;8.87;;;11.00;99.90;;;;;;4968726;28;20513;-74
2021/05/19 00:45:11;;;;;;;9.60;8.77;;;10.90;99.90;;;;;;4964508;28;20801;-73
2021/05/19 00:47:41;;;;;;;11.00;10.00;;;10.90;99.90;;;;;;4952737;28;20458;-76
2021/05/19 00:50:12;;;;;;;9.60;8.70;;;10.80;99.90;;;;;;4974898;28;20477;-73
2021/05/19 00:52:39;;;;;;;9.23;8.33;;;10.80;99.90;;;;;;4958316;28;20438;-74
2021/05/19 00:55:08;;;;;;;9.43;8.47;;;10.80;99.90;;;;;;4975052;28;20442;-75
2021/05/19 00:57:36;;;;;;;8.70;8.00;;;10.90;99.90;;;;;;4973434;28;20454;-74
2021/05/19 01:00:09;;;;;;;9.57;8.67;;;10.90;99.90;;;;;;4939183;29;20877;-73
2021/05/19 01:02:53;;;;;;;8.57;7.87;;;11.00;99.90;;;;;;4939052;28;20526;-74
2021/05/19 01:05:35;;;;;;;10.73;8.50;;;10.90;99.90;;;;;;4939197;29;20534;-75
2021/05/19 01:10:55;;;;;;;9.80;8.80;;;10.80;99.90;;;;;;4970006;28;20468;-74
2021/05/19 01:13:22;;;;;;;9.80;9.00;;;10.80;99.90;;;;;;4959772;28;20470;-75
2021/05/19 01:15:52;;;;;;;8.97;8.27;;;10.70;99.90;;;;;;4958343;28;20442;-74
2021/05/19 01:18:19;;;;;;;8.97;8.20;;;10.70;99.90;;;;;;4974422;28;20486;-75
2021/05/19 01:20:47;;;;;;;9.60;8.80;;;10.70;99.90;;;;;;4958321;28;20543;-74
2021/05/19 01:23:15;;;;;;;8.50;7.70;;;10.70;99.90;;;;;;4950774;28;20745;-73
2021/05/19 01:25:45;;;;;;;8.47;7.67;;;10.70;99.90;;;;;;4955646;29;20471;-76
2021/05/19 01:28:12;;;;;;;7.80;7.00;;;10.70;99.90;;;;;;4938529;29;20485;-75
2021/05/19 01:30:41;;;;;;;7.63;7.03;;;10.70;99.90;;;;;;4956190;29;20436;-75
2021/05/19 01:33:08;;;;;;;6.83;6.23;;;10.80;99.90;;;;;;4938322;29;21003;-73
2021/05/19 01:35:35;;;;;;;7.13;6.53;;;10.80;99.90;;;;;;4963767;28;20445;-75
2021/05/19 01:38:02;;;;;;;7.90;7.00;;;10.70;99.90;;;;;;4952697;28;20551;-75
2021/05/19 01:40:29;;;;;;;6.50;5.90;;;10.70;99.90;;;;;;4965391;28;20544;-75
2021/05/19 01:42:57;;;;;;;7.03;6.43;;;10.60;99.90;;;;;;4912700;29;20468;-73
2021/05/19 01:45:49;;;;;;;6.50;5.90;;;10.60;99.90;;;;;;4919589;29;20535;-74
2021/05/19 01:48:18;;;;;;;6.60;5.93;;;10.60;99.90;;;;;;4922435;29;20552;-72
2021/05/19 01:50:48;;;;;;;6.53;6.03;;;10.40;99.90;;;;;;4922447;29;20483;-73
2021/05/19 01:53:16;;;;;;;6.03;5.60;;;10.30;99.90;;;;;;4950881;28;20552;-73
2021/05/19 01:55:43;;;;;;;5.87;5.40;;;10.20;99.90;;;;;;4950396;29;20472;-73
2021/05/19 01:58:14;;;;;;;6.37;5.87;;;10.10;99.90;;;;;;4942437;28;20820;-75
2021/05/19 02:00:41;;;;;;;5.87;5.27;;;10.10;99.90;;;;;;4938839;29;20443;-75
2021/05/19 02:03:08;;;;;;;5.30;4.90;;;10.00;99.90;;;;;;4937149;28;20513;-74
2021/05/19 02:05:56;;;;;;;5.45;4.95;;;10.00;99.90;;;;;;4938370;29;20467;-75
2021/05/19 02:08:26;;;;;;;5.70;5.17;;;10.00;99.90;;;;;;4955140;28;20227;-75
2021/05/19 02:10:53;;;;;;;5.40;5.00;;;9.90;99.90;;;;;;4937690;29;20454;-75
2021/05/19 02:13:21;;;;;;;5.25;4.85;;;9.90;99.90;;;;;;4954826;28;20469;-74
2021/05/19 02:15:49;;;;;;;5.78;5.38;;;9.90;99.90;;;;;;4938340;29;20242;-75
2021/05/19 02:18:20;;;;;;;5.45;4.97;;;9.90;99.90;;;;;;4936966;28;20231;-75
2021/05/19 02:20:46;;;;;;;5.72;4.65;;;9.90;99.90;;;;;;4953961;28;20266;-75
2021/05/19 02:23:14;;;;;;;4.70;4.30;;;9.90;99.90;;;;;;4954362;29;20250;-75
2021/05/19 02:25:41;;;;;;;5.45;5.03;;;9.80;99.90;;;;;;4930359;29;20314;-75
2021/05/19 02:28:08;;;;;;;4.80;4.45;;;9.80;99.90;;;;;;4934069;29;20233;-73
2021/05/19 02:30:44;;;;;;;4.93;4.53;;;9.80;99.90;;;;;;4935516;29;20288;-75
2021/05/19 02:33:18;;;;;;;4.80;3.90;;;9.80;99.90;;;;;;4931673;29;20574;-74
2021/05/19 02:35:45;;;;;;;5.22;4.75;;;9.70;99.90;;;;;;4930428;29;20847;-74
2021/05/19 02:38:12;;;;;;;5.20;4.15;;;9.70;99.90;;;;;;4936710;28;20605;-75
2021/05/19 02:40:40;;;;;;;4.50;4.10;;;9.70;99.90;;;;;;4939861;29;20693;-75
2021/05/19 02:43:08;;;;;;;4.30;3.90;;;9.70;99.90;;;;;;4964423;28;20707;-74
2021/05/19 02:45:38;;;;;;;5.10;4.40;;;9.60;99.90;;;;;;4948776;29;20197;-74
2021/05/19 02:48:05;;;;;;;5.05;4.55;;;9.60;99.90;;;;;;4940030;28;20717;-75
2021/05/19 02:50:32;;;;;;;6.55;4.00;;;9.60;99.90;;;;;;4954478;28;20276;-75
2021/05/19 02:52:59;;;;;;;6.80;4.18;;;9.60;99.90;;;;;;4954319;28;20244;-74
2021/05/19 02:55:26;;;;;;;4.30;3.90;;;9.50;99.90;;;;;;4953973;28;20221;-75
2021/05/19 02:57:54;;;;;;;4.38;3.97;;;9.60;99.90;;;;;;4953594;29;20232;-74
2021/05/19 03:00:21;;;;;;;4.38;3.97;;;9.50;99.90;;;;;;4954502;28;20272;-74
2021/05/19 03:02:47;;;;;;;4.85;4.00;;;9.60;99.90;;;;;;4953113;28;20240;-75
2021/05/19 03:05:14;;;;;;;4.30;3.90;;;9.50;99.90;;;;;;4957978;28;20218;-75
2021/05/19 03:07:42;;;;;;;4.32;3.45;;;9.40;99.90;;;;;;4948812;28;20250;-75
2021/05/19 03:10:09;;;;;;;4.30;3.90;;;9.30;99.90;;;;;;4952331;28;20196;-74
2021/05/19 03:12:36;;;;;;;4.18;3.58;;;9.30;99.90;;;;;;4953763;28;20271;-73
2021/05/19 03:15:05;;;;;;;3.92;3.55;;;9.20;99.90;;;;;;4937083;29;20211;-76
2021/05/19 03:17:32;;;;;;;6.95;3.65;;;9.10;99.90;;;;;;4953038;28;20223;-73
2021/05/19 03:19:59;;;;;;;6.07;4.60;;;9.00;99.90;;;;;;4954178;29;20190;-73
2021/05/19 03:22:26;;;;;;;4.47;4.13;;;8.90;99.90;;;;;;4953864;28;20719;-75
2021/05/19 03:24:53;;;;;;;5.15;4.13;;;8.80;99.90;;;;;;4935981;29;20208;-76
2021/05/19 03:27:19;;;;;;;4.70;4.30;;;8.80;99.90;;;;;;4953874;29;20580;-75
2021/05/19 03:29:47;;;;;;;4.63;4.22;;;8.80;99.90;;;;;;4936528;28;20556;-73
2021/05/19 03:32:13;;;;;;;5.25;4.45;;;8.70;99.90;;;;;;4954045;29;20222;-74
2021/05/19 03:34:40;;;;;;;5.20;4.70;;;8.70;99.90;;;;;;4936692;29;20218;-74
2021/05/19 03:37:08;;;;;;;5.57;5.07;;;8.60;99.90;;;;;;4952410;29;20694;-74
2021/05/19 03:39:35;;;;;;;5.43;4.93;;;8.70;99.90;;;;;;4959979;28;20307;-73
2021/05/19 03:42:02;;;;;;;7.47;5.55;;;8.70;99.90;;;;;;4945575;28;20286;-75
2021/05/19 03:44:28;;;;;;;6.63;6.00;;;8.70;99.90;;;;;;4972674;28;20223;-73
2021/05/19 03:46:59;;;;;;;9.93;5.97;;;8.80;99.90;;;;;;4972797;28;20211;-73
2021/05/19 03:49:28;;;;;;;8.77;6.20;;;8.90;99.90;;;;;;4971687;28;20222;-73
2021/05/19 03:51:55;;;;;;;8.15;5.90;;;9.00;99.90;;;;;;4972710;28;20266;-75
2021/05/19 03:54:23;;;;;;;6.88;6.18;;;9.00;99.90;;;;;;4971748;28;20211;-74
2021/05/19 03:56:50;;;;;;;7.57;6.05;;;9.00;99.90;;;;;;4955769;28;20704;-74
2021/05/19 03:59:17;;;;;;;9.52;5.50;;;9.10;99.90;;;;;;4972047;28;20215;-74
2021/05/19 04:01:44;;;;;;;10.30;6.60;;;9.10;99.90;;;;;;4971437;28;20181;-75
2021/05/19 04:04:11;;;;;;;9.90;6.35;;;9.10;99.90;;;;;;4971136;28;20226;-75
2021/05/19 04:06:38;;;;;;;5.88;5.38;;;9.20;99.90;;;;;;4972894;28;20211;-75
2021/05/19 04:09:11;;;;;;;7.40;5.93;;;9.30;99.90;;;;;;4971363;28;20273;-75
2021/05/19 04:11:39;;;;;;;12.27;6.35;;;9.40;99.90;;;;;;4971707;28;20251;-73
2021/05/19 04:14:06;;;;;;;8.73;5.95;;;9.40;99.90;;;;;;4958465;28;20215;-75
2021/05/19 04:16:34;;;;;;;7.43;6.25;;;9.40;99.90;;;;;;4976076;28;20235;-75
2021/05/19 04:19:04;;;;;;;11.27;7.40;;;9.40;99.90;;;;;;4945826;28;20291;-75
2021/05/19 04:21:31;;;;;;;7.03;6.28;;;9.40;99.90;;;;;;4950137;29;20197;-76
2021/05/19 04:23:58;;;;;;;9.40;6.30;;;9.30;99.90;;;;;;4961450;28;20720;-74
2021/05/19 04:26:26;;;;;;;9.35;6.30;;;9.40;99.90;;;;;;4976154;28;20215;-75
2021/05/19 04:28:53;;;;;;;7.82;6.47;;;9.40;99.90;;;;;;4950628;28;20223;-73
2021/05/19 04:31:19;;;;;;;11.18;6.97;;;9.40;99.90;;;;;;4972596;28;20218;-74
2021/05/19 04:33:47;;;;;;;11.05;6.90;;;9.40;99.90;;;;;;4960789;28;20309;-73
2021/05/19 04:36:15;;;;;;;10.70;6.95;;;9.50;99.90;;;;;;4975850;28;20198;-74
2021/05/19 04:38:42;;;;;;;12.75;8.00;;;9.50;99.90;;;;;;4975934;28;20232;-74
2021/05/19 04:41:12;;;;;;;10.50;7.10;;;9.50;99.90;;;;;;4975353;28;20243;-75
2021/05/19 04:43:38;;;;;;;9.40;7.27;;;9.50;99.90;;;;;;4975898;28;20258;-75
2021/05/19 04:46:08;;;;;;;11.50;6.95;;;9.60;99.90;;;;;;4975923;28;20466;-74
2021/05/19 04:48:35;;;;;;;9.73;6.05;;;9.60;99.90;;;;;;4964941;28;20245;-75
2021/05/19 04:51:05;;;;;;;11.70;6.53;;;9.60;99.90;;;;;;4939753;29;20217;-75
2021/05/19 04:53:33;;;;;;;11.65;6.95;;;9.60;99.90;;;;;;4938937;29;20215;-74
2021/05/19 04:56:00;;;;;;;10.77;7.22;;;9.70;99.90;;;;;;4956230;29;20670;-74
2021/05/19 04:58:28;;;;;;;9.27;6.80;;;9.80;99.90;;;;;;4956315;28;20219;-76
2021/05/19 05:00:55;;;;;;;8.80;6.60;;;9.80;99.90;;;;;;4956592;28;20678;-74
2021/05/19 05:03:22;;;;;;;8.45;6.05;;;9.80;99.90;;;;;;4940185;28;20262;-73
2021/05/19 05:05:53;;;;;;;11.75;6.63;;;9.80;99.90;;;;;;4964061;28;20202;-74
2021/05/19 05:08:21;;;;;;;8.05;5.90;;;9.80;99.90;;;;;;4937139;28;20226;-75
2021/05/19 05:10:51;;;;;;;9.85;5.50;;;9.90;99.90;;;;;;4952663;29;20647;-75
2021/05/19 05:13:18;;;;;;;9.30;5.35;;;10.10;99.90;;;;;;4959643;28;20217;-73
2021/05/19 05:15:45;;;;;;;5.32;4.07;;;10.10;99.90;;;;;;4939309;29;20282;-75
2021/05/19 05:18:12;;;;;;;9.53;5.30;;;10.20;99.90;;;;;;4970177;28;20228;-73
2021/05/19 05:20:39;;;;;;;5.10;3.42;;;10.20;99.90;;;;;;4969948;28;20442;-74
2021/05/19 05:23:06;;;;;;;6.60;3.90;;;10.30;99.90;;;;;;4985760;28;20232;-74
2021/05/19 05:25:33;;;;;;;4.93;3.93;;;10.40;99.90;;;;;;4974335;28;20473;-74
2021/05/19 05:28:00;;;;;;;11.02;4.25;;;10.40;99.90;;;;;;4974503;28;20510;-75
2021/05/19 05:30:29;;;;;;;6.63;3.60;;;10.40;99.90;;;;;;4958045;28;20193;-75
2021/05/19 05:32:56;;;;;;;7.63;3.57;;;10.50;99.90;;;;;;4974254;28;20631;-75
2021/05/19 05:35:23;;;;;;;5.43;2.65;;;10.50;99.90;;;;;;4943057;28;20445;-75
2021/05/19 05:37:50;;;;;;;9.20;3.63;;;10.50;99.90;;;;;;4974473;28;20703;-75
2021/05/19 05:40:17;;;;;;;7.80;3.23;;;10.50;99.90;;;;;;4957783;28;20447;-74
2021/05/19 05:42:44;;;;;;;4.73;2.93;;;10.50;99.90;;;;;;4974442;28;20503;-74
2021/05/19 05:45:12;;;;;;;11.37;3.07;;;10.60;99.90;;;;;;4975051;28;20493;-74
2021/05/19 05:47:39;;;;;;;2.90;2.10;;;10.60;99.90;;;;;;4973148;28;20561;-75
2021/05/19 05:50:06;;;;;;;5.90;2.40;;;10.70;99.90;;;;;;4957695;28;20829;-74
2021/05/19 05:52:33;;;;;;;4.10;2.10;;;10.80;99.90;;;;;;4974548;28;20423;-74
2021/05/19 05:55:00;;;;;;;5.40;3.00;;;10.90;99.90;;;;;;4973790;28;20448;-74
2021/05/19 05:57:27;;;;;;;8.10;2.30;;;10.90;99.90;;;;;;4957206;28;20462;-75
2021/05/19 05:59:54;;;;;;;5.43;2.67;;;11.20;99.90;;;;;;4974432;28;20427;-74
2021/05/19 06:02:24;;;;;;;5.70;2.17;;;11.60;99.90;;;;;;4974267;28;20910;-74
2021/05/19 06:04:51;;;;;;;3.93;1.67;;;12.00;99.90;;;;;;4959594;28;20476;-73
2021/05/19 06:07:18;;;;;;;9.10;1.80;;;12.30;99.90;;;;;;4949338;29;20473;-73
2021/05/19 06:09:51;;;;;;;2.97;1.90;;;12.80;99.90;;;;;;4980164;28;21183;-74
2021/05/19 06:12:19;;;;;;;5.30;1.63;;;13.30;99.90;;;;;;4974857;28;20466;-73
2021/05/19 06:14:46;;;;;;;4.30;1.30;;;13.60;99.90;;;;;;4988454;28;20471;-74
2021/05/19 06:17:15;;;;;;;3.13;1.90;;;13.70;99.90;;;;;;4963723;28;21011;-73
2021/05/19 06:19:42;;;;;;;3.43;1.20;;;14.00;99.90;;;;;;4971897;28;20471;-74
2021/05/19 06:22:12;;;;;;;3.10;1.30;;;14.30;99.90;;;;;;4956896;28;20475;-74
2021/05/19 06:24:39;;;;;;;3.97;1.40;;;14.80;99.90;;;;;;4950887;28;20472;-73
2021/05/19 06:27:06;;;;;;;5.23;1.53;;;14.90;99.90;;;;;;4972298;28;20513;-73
2021/05/19 06:29:36;;;;;;;5.90;1.47;;;14.90;99.90;;;;;;4973529;28;21084;-74
2021/05/19 06:32:08;;;;;;;2.23;1.53;;;14.80;99.90;;;;;;4960803;28;20439;-74
2021/05/19 06:34:36;;;;;;;4.53;1.63;;;14.70;99.90;;;;;;4970608;28;21544;-73
2021/05/19 06:37:09;;;;;;;4.63;1.73;;;14.70;99.90;;;;;;4954037;28;20522;-73
2021/05/19 06:39:37;;;;;;;3.13;1.50;;;14.70;99.90;;;;;;4972486;28;20475;-73
2021/05/19 06:42:04;;;;;;;3.07;1.43;;;14.60;99.90;;;;;;4956112;28;20447;-74
2021/05/19 06:44:31;;;;;;;2.43;1.33;;;14.60;99.90;;;;;;4956252;28;20566;-73
2021/05/19 06:47:01;;;;;;;2.43;1.13;;;14.60;99.90;;;;;;4972554;28;20565;-74
2021/05/19 06:49:27;;;;;;;6.37;1.27;;;14.60;99.80;;;;;;4972840;28;20548;-73
2021/05/19 06:51:54;;;;;;;6.30;1.80;;;14.40;99.90;;;;;;4956832;28;20865;-73
2021/05/19 06:54:22;;;;;;;4.20;1.83;;;14.40;99.90;;;;;;4957522;28;20481;-73
2021/05/19 06:56:49;;;;;;;4.13;1.53;;;14.30;99.90;;;;;;4957008;28;20468;-73
2021/05/19 06:59:18;;;;;;;6.60;3.17;;;14.20;99.90;;;;;;4972782;28;20473;-73
2021/05/19 07:01:45;;;;;;;3.60;2.27;;;14.20;99.90;;;;;;4956645;28;20977;-73
2021/05/19 07:04:18;;;;;;;4.10;1.93;;;14.20;99.90;;;;;;4955138;28;20520;-74
2021/05/19 07:06:48;;;;;;;5.70;2.13;;;14.40;99.20;;;;;;4956476;28;20475;-73
2021/05/19 07:09:20;;;;;;;5.67;2.33;;;14.30;99.40;;;;;;4945219;28;20879;-73
2021/05/19 07:11:53;;;;;;;6.80;1.70;;;14.20;99.90;;;;;;4956228;28;20531;-73
2021/05/19 07:14:27;;;;;;;2.50;1.50;;;14.20;99.90;;;;;;4957971;28;20483;-74
2021/05/19 07:16:58;;;;;;;7.23;1.40;;;14.10;99.30;;;;;;4955966;28;20484;-74
2021/05/19 07:19:26;;;;;;;2.87;1.70;;;14.10;99.90;;;;;;4956071;28;20478;-73
2021/05/19 07:21:55;;;;;;;3.60;1.67;;;14.10;99.90;;;;;;4939165;28;20477;-72
2021/05/19 07:24:22;;;;;;;3.43;1.60;;;14.10;99.90;;;;;;4951593;28;20468;-73
2021/05/19 07:27:06;;;;;;;6.77;1.67;;;14.10;99.90;;;;;;4969612;28;20472;-73
2021/05/19 07:29:37;;;;;;;3.80;1.63;;;14.20;99.90;;;;;;4955925;28;20486;-73
2021/05/19 07:32:10;;;;;;;4.20;2.30;;;14.30;99.90;;;;;;4956004;28;20439;-73
2021/05/19 07:34:47;;;;;;;5.60;3.37;;;14.20;99.90;;;;;;4986443;28;20479;-73
2021/05/19 07:37:21;;;;;;;5.00;2.10;;;14.30;98.70;;;;;;4972389;28;20456;-73
2021/05/19 07:39:50;;;;;;;4.77;2.27;;;14.50;97.30;;;;;;4948577;28;20478;-73
2021/05/19 07:42:18;;;;;;;3.07;1.60;;;14.50;99.20;;;;;;4954786;28;20551;-74
2021/05/19 07:44:47;;;;;;;5.53;1.50;;;14.60;97.50;;;;;;4947507;28;20483;-73
2021/05/19 07:47:13;;;;;;;4.43;1.70;;;14.60;96.70;;;;;;4954436;28;20459;-73
2021/05/19 07:49:41;;;;;;;5.17;1.80;;;14.50;95.90;;;;;;4971021;28;20465;-73
2021/05/19 07:52:07;;;;;;;3.87;1.73;;;14.30;98.30;;;;;;4955618;28;20420;-75
2021/05/19 07:54:35;;;;;;;3.53;1.57;;;14.20;96.50;;;;;;4946575;28;20479;-73
2021/05/19 07:57:11;;;;;;;2.80;1.27;;;14.20;97.30;;;;;;4970676;28;20204;-74
2021/05/19 07:59:38;;;;;;;3.07;1.60;;;14.10;97.30;;;;;;4972285;28;20490;-73
2021/05/19 08:04:35;;;;;;;6.30;1.77;;;13.90;96.90;;;;;;4970897;28;20494;-73
2021/05/19 08:07:02;;;;;;;1.60;0.90;;;13.80;97.30;;;;;;4972683;28;20564;-73
2021/05/19 08:09:31;;;;;;;3.57;1.30;;;13.80;97.90;;;;;;4970255;28;20904;-74
2021/05/19 08:11:57;;;;;;;4.97;1.60;;;13.70;98.40;;;;;;4955422;28;20451;-73
2021/05/19 08:14:29;;;;;;;3.20;1.10;;;13.80;97.20;;;;;;4972109;28;20540;-74
2021/05/19 08:17:00;;;;;;;17.63;11.60;;;13.70;99.10;;;;;;4954895;28;20493;-73
2021/05/19 08:19:26;;;;;;;5.33;2.50;;;13.60;98.70;;;;;;4986568;28;20463;-74
2021/05/19 08:21:53;;;;;;;3.13;1.40;;;13.50;98.80;;;;;;4972682;28;20434;-75
2021/05/19 08:24:22;;;;;;;4.37;1.40;;;13.50;99.60;;;;;;4963672;28;20481;-74
2021/05/19 08:26:49;;;;;;;7.00;1.50;;;13.60;99.90;;;;;;4955083;28;20555;-74
2021/05/19 08:29:19;;;;;;;4.53;1.33;;;13.60;99.70;;;;;;4971809;28;20513;-75
2021/05/19 08:31:46;;;;;;;4.30;1.20;;;13.70;99.90;;;;;;4957925;28;20447;-74
2021/05/19 08:34:13;;;;;;;3.63;1.13;;;13.80;99.80;;;;;;4954348;28;20561;-73
2021/05/19 08:36:48;;;;;;;3.30;1.40;;;14.00;99.90;;;;;;4958754;28;20469;-74
2021/05/19 08:39:18;;;;;;;1.80;1.10;;;14.40;98.30;;;;;;4978477;28;20985;-74
2021/05/19 08:41:48;;;;;;;3.00;1.27;;;14.50;97.00;;;;;;4956581;28;20460;-74
2021/05/19 08:44:17;;;;;;;6.17;1.00;;;14.60;95.60;;;;;;4971856;28;20467;-74
2021/05/19 08:46:47;;;;;;;6.13;1.43;;;14.50;95.90;;;;;;4971977;28;21048;-73
2021/05/19 08:49:20;;;;;;;2.23;1.03;;;14.40;97.70;;;;;;4954010;28;20579;-74
2021/05/19 08:51:55;;;;;;;2.80;1.00;;;14.40;96.80;;;;;;4972183;28;20431;-74
2021/05/19 08:54:23;;;;;;;3.33;1.30;;;14.30;97.80;;;;;;4938567;28;20555;-73
2021/05/19 08:56:54;;;;;;;2.37;1.00;;;14.30;97.20;;;;;;4961906;28;20470;-74
2021/05/19 08:59:21;;;;;;;2.77;1.27;;;14.40;98.10;;;;;;4946816;28;20919;-73
2021/05/19 09:01:50;;;;;;;3.93;1.37;;;14.40;98.80;;;;;;4944772;28;20435;-74
2021/05/19 09:04:23;;;;;;;2.87;0.90;;;14.50;97.70;;;;;;4978941;28;20493;-74
2021/05/19 09:06:59;;;;;;;6.40;1.40;;;14.60;96.10;;;;;;4961541;28;20596;-74
2021/05/19 09:09:38;;;;;;;3.30;1.60;;;14.50;97.30;;;;;;4983447;28;20476;-74
2021/05/19 09:12:14;;;;;;;9.50;4.60;;;14.70;96.90;;;;;;4975678;28;20535;-76
2021/05/19 09:15:01;;;;;;;4.73;2.20;;;14.90;97.30;;;;;;4957228;28;20463;-74
2021/05/19 09:17:31;;;;;;;5.67;1.77;;;15.20;95.60;;;;;;4948445;28;21018;-73
2021/05/19 09:20:02;;;;;;;4.10;1.93;;;15.40;94.70;;;;;;4967456;28;20958;-73
2021/05/19 09:22:34;;;;;;;7.17;1.50;;;15.60;92.90;;;;;;4958195;28;20493;-74
2021/05/19 09:25:32;;;;;;;3.50;1.33;;;15.70;92.90;;;;;;4949067;28;20452;-73
2021/05/19 09:28:07;;;;;;;4.70;1.90;;;15.90;93.00;;;;;;4954254;28;20511;-73
2021/05/19 09:30:48;;;;;;;3.20;1.13;;;16.00;93.00;;;;;;4971200;28;20438;-74
2021/05/19 09:33:23;;;;;;;6.53;1.50;;;15.90;91.80;;;;;;4974000;28;20477;-73
2021/05/19 09:36:18;;;;;;;6.30;1.40;;;15.90;90.80;;;;;;4958944;28;20439;-74
2021/05/19 09:38:52;;;;;;;4.07;2.10;;;16.00;90.50;;;;;;4976561;28;20466;-74
2021/05/19 09:41:25;;;;;;;5.13;2.40;;;16.20;90.90;;;;;;4974756;28;20425;-74
2021/05/19 09:43:56;;;;;;;8.30;1.80;;;16.40;90.70;;;;;;4972045;28;20463;-73
2021/05/19 09:49:17;;;;;;;3.47;1.30;;;16.90;83.40;;;;;;4973433;28;20470;-74
2021/05/19 09:51:48;;;;;;;2.90;1.50;;;17.00;82.30;;;;;;4960866;28;20434;-73
2021/05/19 09:54:34;;;;;;;5.20;1.90;;;16.90;81.70;;;;;;4974127;28;20565;-73
2021/05/19 09:57:09;;;;;;;5.53;1.47;;;16.90;81.60;;;;;;4975186;28;20460;-73
2021/05/19 09:59:41;;;;;;;3.73;1.17;;;16.90;80.00;;;;;;4973721;28;20493;-72
2021/05/19 10:02:10;;;;;;;4.20;0.97;;;16.90;82.10;;;;;;4980168;28;20430;-73
2021/05/19 10:04:39;;;;;;;2.30;1.20;;;16.80;75.70;;;;;;4957737;28;21039;-73
2021/05/19 10:07:12;;;;;;;1.60;1.13;;;16.70;79.30;;;;;;4959329;28;20462;-73
2021/05/19 10:09:40;;;;;;;4.03;1.03;;;16.50;80.00;;;;;;4982476;28;20474;-73
2021/05/19 10:12:07;;;;;;;4.37;1.30;;;16.40;80.00;;;;;;4975081;28;20484;-74
2021/05/19 10:14:36;;;;;;;3.63;1.70;;;16.20;79.90;;;;;;4986747;28;20874;-73
2021/05/19 10:17:12;;;;;;;7.63;3.03;;;16.10;82.30;;;;;;4957515;28;20981;-73
2021/05/19 10:19:52;;;;;;;6.87;1.63;;;15.90;82.20;;;;;;4944358;28;20471;-73
2021/05/19 10:22:21;;;;;;;6.70;2.20;;;15.80;84.00;;;;;;4973091;28;20525;-74
2021/05/19 10:24:54;;;;;;;4.70;1.50;;;15.90;85.30;;;;;;4958017;28;20818;-73
2021/05/19 10:27:25;;;;;;;3.63;1.20;;;15.90;81.90;;;;;;4981515;28;20480;-74
2021/05/19 10:29:56;;;;;;;4.37;1.77;;;15.90;80.40;;;;;;4957678;28;20459;-74
2021/05/19 10:32:29;;;;;;;3.90;1.10;;;15.90;82.80;;;;;;4937523;29;20470;-73
2021/05/19 10:34:59;;;;;;;5.80;1.57;;;15.90;83.60;;;;;;4940483;29;20452;-77
2021/05/19 10:37:32;;;;;;;2.60;1.00;;;16.00;82.90;;;;;;4937499;29;20456;-80
2021/05/19 10:40:11;;;;;;;7.90;1.70;;;16.20;83.00;;;;;;4953300;28;20502;-77
2021/05/19 10:42:41;;;;;;;6.77;1.43;;;16.30;83.60;;;;;;4949703;28;20881;-81
2021/05/19 10:45:15;;;;;;;3.80;1.90;;;16.40;82.10;;;;;;4974050;28;20494;-81
2021/05/19 10:47:44;;;;;;;2.90;1.37;;;16.50;78.40;;;;;;4973055;28;20469;-80
2021/05/19 10:50:31;;;;;;;1.97;1.17;;;16.50;77.20;;;;;;4946614;28;20444;-79
2021/05/19 10:58:52;;;;;;;6.20;1.03;;;16.30;77.30;;;;;;4973907;28;20988;-79
2021/05/19 11:01:38;;;;;;;2.20;0.90;;;16.30;76.40;;;;;;4977967;28;20448;-80
2021/05/19 11:04:14;;;;;;;4.30;1.40;;;16.40;74.90;;;;;;4971136;28;20474;-79
2021/05/19 11:06:56;;;;;;;2.30;0.70;;;16.30;77.80;;;;;;4980920;28;20983;-80
2021/05/19 11:09:31;;;;;;;2.40;1.23;;;16.40;75.90;;;;;;4941158;28;20566;-83
2021/05/19 11:12:18;;;;;;;2.47;0.70;;;16.30;77.80;;;;;;4954448;29;20439;-80
2021/05/19 11:14:48;;;;;;;5.97;1.50;;;16.30;76.60;;;;;;4936222;28;20848;-82
2021/05/19 11:17:43;;;;;;;1.97;0.60;;;16.40;78.30;;;;;;4960466;28;20459;-81
2021/05/19 11:20:12;;;;;;;0.80;0.70;;;16.50;75.90;;;;;;4954783;28;20549;-81
2021/05/19 11:22:38;;;;;;;1.20;0.50;;;16.60;73.70;;;;;;4936622;28;20424;-78
2021/05/19 11:25:06;;;;;;;1.00;0.40;;;16.50;72.50;;;;;;4953649;28;20447;-82
2021/05/19 11:27:35;;;;;;;3.10;0.90;;;16.40;74.80;;;;;;4952032;28;20571;-81
2021/05/19 11:30:06;;;;;;;1.87;1.13;;;16.50;76.60;;;;;;4973050;28;20447;-79
2021/05/19 11:32:35;;;;;;;1.83;0.80;;;16.60;74.40;;;;;;4973463;28;20434;-82
2021/05/19 11:35:16;;;;;;;1.70;1.03;;;16.60;76.40;;;;;;4936966;29;20443;-78
2021/05/19 11:38:07;;;;;;;0.97;0.73;;;16.60;76.20;;;;;;4944825;28;20940;-78
2021/05/19 11:40:49;;;;;;;1.10;0.67;;;16.60;69.30;;;;;;4955861;28;21418;-76
2021/05/19 11:43:20;;;;;;;1.73;0.90;;;16.50;71.50;;;;;;4955128;28;20478;-79
2021/05/19 11:45:57;;;;;;;3.20;0.77;;;16.40;71.70;;;;;;4962538;28;20470;-77
2021/05/19 11:48:27;;;;;;;0.70;0.60;;;16.30;71.90;;;;;;4970533;28;20531;-77
2021/05/19 11:51:22;;;;;;;1.23;0.50;;;16.30;73.30;;;;;;4972117;28;20424;-75
2021/05/19 11:54:03;;;;;;;1.73;0.87;;;16.20;75.00;;;;;;4964818;28;20479;-76
2021/05/19 11:56:53;;;;;;;2.10;0.90;;;16.40;73.30;;;;;;4977623;28;20928;-76
2021/05/19 11:59:38;;;;;;;1.73;0.80;;;16.60;74.20;;;;;;4958459;28;20564;-77
2021/05/19 12:02:22;;;;;;;0.83;0.67;;;16.80;71.10;;;;;;4982230;28;20434;-78
2021/05/19 12:04:52;;;;;;;1.63;0.63;;;17.00;68.70;;;;;;4922828;28;20455;-79
2021/05/19 12:07:37;;;;;;;1.00;0.70;;;17.20;71.10;;;;;;4936579;29;20475;-79
2021/05/19 12:10:24;;;;;;;1.70;0.93;;;17.20;67.10;;;;;;4947184;28;20977;-79
2021/05/19 12:12:58;;;;;;;1.63;0.60;;;17.30;70.20;;;;;;4948252;28;20472;-77
2021/05/19 12:15:31;;;;;;;1.00;0.60;;;17.30;69.10;;;;;;4972882;28;20431;-80
2021/05/19 12:18:03;;;;;;;1.13;0.70;;;17.50;69.60;;;;;;4953855;28;20487;-79
2021/05/19 12:20:39;;;;;;;0.50;0.40;;;17.80;67.10;;;;;;4940372;28;20474;-76
2021/05/19 12:23:07;;;;;;;1.50;0.80;;;17.90;68.20;;;;;;4949835;28;20969;-79
2021/05/19 12:25:39;;;;;;;3.50;1.07;;;17.90;66.80;;;;;;4954089;28;20450;-78
2021/05/19 12:28:29;;;;;;;0.90;0.60;;;17.80;65.60;;;;;;4958114;28;20563;-78
2021/05/19 12:31:06;;;;;;;0.60;0.40;;;17.60;66.50;;;;;;4959931;28;20448;-77
2021/05/19 12:33:42;;;;;;;1.03;0.47;;;17.50;64.30;;;;;;4939242;28;20530;-78
2021/05/19 12:36:24;;;;;;;2.23;0.50;;;17.40;64.20;;;;;;4947730;28;20862;-83
2021/05/19 12:38:57;;;;;;;2.33;0.43;;;17.30;63.00;;;;;;4956630;28;20499;-78
2021/05/19 12:41:49;;;;;;;0.77;0.40;;;17.20;62.60;;;;;;4940705;28;20945;-78
2021/05/19 12:44:18;;;;;;;1.10;0.63;;;17.00;64.80;;;;;;4975933;28;20470;-81
2021/05/19 12:47:05;;;;;;;1.40;0.70;;;16.90;63.90;;;;;;4983015;23;20529;-79
2021/05/19 12:49:35;;;;;;;2.50;0.60;;;16.90;64.20;;;;;;5030261;28;20465;-77
2021/05/19 12:52:05;;;;;;;1.57;0.50;;;16.90;63.60;;;;;;5041936;28;20470;-78
2021/05/19 12:54:34;;;;;;;1.67;0.60;;;16.90;67.00;;;;;;5039095;28;20841;-79
2021/05/19 12:57:12;;;;;;;1.37;0.73;;;16.70;68.40;;;;;;5035462;28;21075;-75
2021/05/19 12:59:54;;;;;;;1.53;0.77;;;16.90;72.00;;;;;;5041841;28;20524;-78
2021/05/19 13:02:24;;;;;;;1.60;0.67;;;17.00;69.80;;;;;;5038886;28;20909;-78
2021/05/19 13:04:53;;;;;;;0.93;0.57;;;17.00;67.90;;;;;;5049233;28;20979;-76
2021/05/19 13:07:23;;;;;;;2.87;1.70;;;16.90;69.60;;;;;;5032507;28;20603;-74
2021/05/19 13:10:14;;;;;;;4.87;2.57;;;16.70;70.50;;;;;;5018770;28;21092;-77
2021/05/19 13:13:03;;;;;;;4.67;1.80;;;16.60;71.10;;;;;;5044509;28;20503;-78
2021/05/19 13:16:09;;;;;;;1.40;0.87;;;16.70;69.50;;;;;;5014671;28;20463;-77
2021/05/19 13:21:37;;;;;;;1.03;0.70;;;16.50;70.50;;;;;;5043618;28;20478;-78
2021/05/19 13:24:10;;;;;;;1.10;0.93;;;16.40;72.20;;;;;;5027481;28;20757;-77